Ana Sayfa
METAR-TAF:

METAR-TAF

Havaalanları :

Giddings-Lee County Airport

Giddings, Teksas, Amerika Birleşik Devletleri

Enlem: 30-10-09N, Boylam: 096-58-48W, yükseklik: 148 m

Güncel hava durumu gözlemi

Rapor saat 06:15 UTC de 22 dakika önce yapıldı.
Rüzgar güneydan 5 kt
Sıcaklık 26°C
Nem 84%
Basınç 1016 hPa
Görüş mesafesi: 16.1 km
Açık gökyüzü

METAR: KGYB 160615Z AUTO 19005KT 10SM CLR 26/23 A3001 RMK AO2 T02580232

Saat: 01:37 (06:37 UTC)


TAF: eksik

4.000'den fazla havaalanı için hava durumu gözlemleri ve tahminleri (METAR ve TAF raporları).

Kullanılabilir istasyonlar harita üzerinde sarı ve kırmızı noktalarla gösterilir.

İstasyonun adını görmek için fareyi noktanın üzerinde gezdirin.

Sonrasında hava gözlem ve tahminlerini görmek için tıklayın.

Haritayı değiştirmek için: yaklaştırmak için siyah artı işaretli yeşil düğmeye ve uzaklaştırmak için de eksi işaretli düğmeye hızla tıklayın; bitişik haritalar için yeşil okları kullanın.


METAR-TAF: